createdAt,value
2018-02-25T00:02:12.642Z,10.40
2018-02-25T00:04:40.894Z,12.10
2018-02-25T00:07:09.145Z,16.83
2018-02-25T00:09:37.399Z,16.87
2018-02-25T00:12:05.656Z,9.88
2018-02-25T00:14:33.894Z,10.40
2018-02-25T00:17:02.155Z,10.75
2018-02-25T00:19:30.395Z,11.73
2018-02-25T00:21:58.654Z,10.25
2018-02-25T00:24:26.904Z,14.48
2018-02-25T00:26:55.152Z,11.32
2018-02-25T00:29:23.410Z,11.25
2018-02-25T00:31:51.662Z,9.93
2018-02-25T00:34:19.910Z,10.43
2018-02-25T00:36:48.941Z,11.70
2018-02-25T00:39:17.189Z,13.10
2018-02-25T00:41:46.203Z,15.30
2018-02-25T00:44:14.455Z,10.20
2018-02-25T00:46:43.477Z,13.75
2018-02-25T00:49:11.729Z,13.98
2018-02-25T00:51:39.981Z,9.95
2018-02-25T00:54:08.239Z,16.35
2018-02-25T00:56:36.490Z,12.30
2018-02-25T00:59:04.745Z,13.20
2018-02-25T01:01:32.989Z,17.77
2018-02-25T01:04:02.014Z,8.95
2018-02-25T01:06:30.263Z,11.05
2018-02-25T01:08:59.291Z,11.48
2018-02-25T01:11:27.538Z,15.88
2018-02-25T01:13:56.550Z,12.27
2018-02-25T01:16:24.809Z,14.38
2018-02-25T01:18:53.057Z,17.27
2018-02-25T01:21:21.309Z,16.00
2018-02-25T01:23:50.321Z,13.50
2018-02-25T01:26:18.576Z,12.70
2018-02-25T01:28:46.829Z,15.73
2018-02-25T01:31:15.087Z,15.35
2018-02-25T01:33:43.341Z,17.77
2018-02-25T01:36:12.355Z,19.92
2018-02-25T01:38:40.607Z,13.40
2018-02-25T01:41:08.863Z,14.10
2018-02-25T01:43:37.110Z,15.73
2018-02-25T01:46:05.375Z,13.52
2018-02-25T01:48:33.618Z,15.88
2018-02-25T01:51:05.138Z,19.05
2018-02-25T01:53:33.391Z,22.37
2018-02-25T01:56:01.640Z,16.62
2018-02-25T01:58:29.886Z,22.05
2018-02-25T02:00:58.905Z,17.05
2018-02-25T02:03:27.169Z,22.45
2018-02-25T02:05:56.195Z,25.55
2018-02-25T02:08:24.446Z,20.77
2018-02-25T02:10:52.696Z,20.92
2018-02-25T02:13:21.722Z,19.33
2018-02-25T02:15:49.974Z,17.45
2018-02-25T02:18:19.007Z,16.52
2018-02-25T02:20:47.252Z,19.00
2018-02-25T02:23:16.358Z,20.27
2018-02-25T02:25:44.617Z,24.20
2018-02-25T02:28:13.633Z,19.30
2018-02-25T02:30:41.899Z,16.27
2018-02-25T02:33:10.160Z,17.75
2018-02-25T02:35:39.175Z,20.42
2018-02-25T02:38:07.427Z,15.20
2018-02-25T02:40:36.455Z,25.17
2018-02-25T02:43:04.710Z,23.98
2018-02-25T02:45:32.982Z,22.08
2018-02-25T02:48:01.994Z,26.20
2018-02-25T02:50:30.243Z,24.10
2018-02-25T02:52:59.271Z,26.00
2018-02-25T02:55:27.555Z,24.17
2018-02-25T02:57:56.545Z,24.37
2018-02-25T03:00:24.803Z,24.60
2018-02-25T03:02:53.059Z,25.12
2018-02-25T03:05:22.088Z,25.02
2018-02-25T03:07:50.344Z,22.30
2018-02-25T03:10:18.594Z,29.77
2018-02-25T03:12:47.625Z,28.48
2018-02-25T03:15:15.879Z,23.20
2018-02-25T03:17:44.138Z,24.60
2018-02-25T03:20:13.167Z,21.98
2018-02-25T03:22:41.421Z,19.37
2018-02-25T03:25:10.430Z,23.55
2018-02-25T03:27:38.693Z,25.92
2018-02-25T03:30:06.955Z,26.02
2018-02-25T03:32:35.978Z,29.73
2018-02-25T03:35:04.226Z,28.77
2018-02-25T03:37:33.259Z,25.40
2018-02-25T03:40:01.514Z,23.98
2018-02-25T03:42:29.770Z,31.87
2018-02-25T03:44:58.799Z,25.70
2018-02-25T03:47:27.054Z,32.83
2018-02-25T03:49:55.304Z,25.27
2018-02-25T03:52:24.332Z,25.67
2018-02-25T03:54:52.598Z,31.77
2018-02-25T03:57:20.860Z,25.58
2018-02-25T03:59:49.869Z,27.73
2018-02-25T04:02:18.132Z,28.05
2018-02-25T04:04:47.152Z,28.30
2018-02-25T04:07:15.410Z,26.55
2018-02-25T04:09:43.659Z,28.52
2018-02-25T04:12:11.924Z,31.60
2018-02-25T04:14:40.174Z,30.77
2018-02-25T04:17:08.431Z,37.72
2018-02-25T04:19:36.691Z,26.55
2018-02-25T04:22:05.096Z,32.90
2018-02-25T04:24:33.355Z,35.90
2018-02-25T04:27:01.610Z,31.23
2018-02-25T04:29:30.629Z,24.33
2018-02-25T04:31:58.882Z,29.98
2018-02-25T04:34:27.898Z,29.17
2018-02-25T04:36:56.158Z,28.95
2018-02-25T04:39:24.413Z,32.47
2018-02-25T04:41:53.444Z,34.58
2018-02-25T04:44:21.694Z,29.70
2018-02-25T04:46:50.707Z,26.37
2018-02-25T04:49:18.966Z,26.50
2018-02-25T04:51:47.217Z,27.23
2018-02-25T04:54:15.470Z,23.87
2018-02-25T04:56:43.721Z,27.02
2018-02-25T04:59:11.974Z,28.50
2018-02-25T05:01:40.254Z,34.75
2018-02-25T05:04:08.485Z,23.92
2018-02-25T05:06:36.735Z,31.65
2018-02-25T05:09:04.994Z,33.08
2018-02-25T05:11:33.245Z,27.95
2018-02-25T05:14:01.510Z,33.80
2018-02-25T05:16:30.525Z,33.55
2018-02-25T05:18:58.795Z,21.87
2018-02-25T05:21:27.044Z,24.23
2018-02-25T05:23:56.073Z,29.02
2018-02-25T05:26:24.321Z,31.87
2018-02-25T05:28:53.352Z,33.97
2018-02-25T05:31:21.612Z,25.50
2018-02-25T05:33:49.868Z,24.58
2018-02-25T05:36:18.878Z,30.25
2018-02-25T05:38:47.145Z,24.70
2018-02-25T05:41:16.154Z,21.92
2018-02-25T05:43:44.415Z,24.58
2018-02-25T05:46:12.662Z,26.35
2018-02-25T05:48:40.937Z,27.90
2018-02-25T05:51:09.187Z,25.80
2018-02-25T05:53:37.454Z,23.08
2018-02-25T05:56:05.698Z,23.58
2018-02-25T05:58:33.961Z,31.90
2018-02-25T06:01:02.974Z,22.27
2018-02-25T06:03:31.239Z,35.05
2018-02-25T06:05:59.486Z,18.92
2018-02-25T06:08:28.514Z,30.33
2018-02-25T06:10:56.766Z,34.90
2018-02-25T06:13:25.798Z,24.73
2018-02-25T06:15:54.053Z,23.98
2018-02-25T06:18:22.315Z,25.45
2018-02-25T06:20:51.338Z,31.08
2018-02-25T06:23:19.594Z,23.12
2018-02-25T06:25:47.846Z,25.83
2018-02-25T06:28:16.867Z,28.25
2018-02-25T06:30:45.121Z,24.20
2018-02-25T06:33:14.138Z,20.55
2018-02-25T06:35:42.388Z,32.10
2018-02-25T06:38:11.409Z,20.17
2018-02-25T06:40:39.657Z,21.52
2018-02-25T06:43:08.673Z,21.98
2018-02-25T06:45:36.927Z,26.17
2018-02-25T06:48:05.946Z,26.95
2018-02-25T06:50:34.204Z,25.92
2018-02-25T06:53:03.230Z,23.87
2018-02-25T06:55:31.478Z,30.33
2018-02-25T06:57:59.734Z,18.23
2018-02-25T07:00:28.753Z,23.87
2018-02-25T07:02:57.005Z,22.52
2018-02-25T07:05:26.023Z,26.35
2018-02-25T07:07:54.278Z,18.95
2018-02-25T07:10:23.295Z,21.58
2018-02-25T07:12:51.553Z,21.90
2018-02-25T07:15:20.669Z,22.05
2018-02-25T07:17:48.929Z,21.00
2018-02-25T07:20:17.184Z,25.67
2018-02-25T07:22:45.441Z,22.55
2018-02-25T07:25:13.729Z,25.85
2018-02-25T07:27:41.984Z,21.60
2018-02-25T07:30:10.245Z,22.58
2018-02-25T07:32:38.493Z,23.48
2018-02-25T07:35:06.758Z,23.98
2018-02-25T07:37:35.013Z,25.12
2018-02-25T07:40:03.277Z,24.92
2018-02-25T07:42:31.576Z,19.85
2018-02-25T07:44:59.773Z,23.12
2018-02-25T07:47:28.037Z,22.45
2018-02-25T07:49:57.060Z,24.90
2018-02-25T07:52:25.306Z,25.25
2018-02-25T07:54:53.566Z,22.98
2018-02-25T07:57:22.578Z,21.83
2018-02-25T07:59:50.851Z,20.40
2018-02-25T08:02:19.105Z,21.30
2018-02-25T08:04:47.360Z,25.42
2018-02-25T08:07:15.609Z,21.75
2018-02-25T08:09:43.867Z,23.80
2018-02-25T08:12:12.113Z,22.35
2018-02-25T08:14:41.137Z,22.92
2018-02-25T08:17:09.405Z,22.27
2018-02-25T08:19:37.670Z,18.25
2018-02-25T08:22:06.683Z,23.05
2018-02-25T08:24:34.946Z,20.15
2018-02-25T08:27:03.206Z,26.58
2018-02-25T08:29:32.226Z,17.10
2018-02-25T08:32:00.465Z,16.85
2018-02-25T08:34:29.498Z,19.45
2018-02-25T08:36:57.751Z,20.45
2018-02-25T08:39:26.011Z,18.55
2018-02-25T08:41:55.089Z,20.92
2018-02-25T08:44:23.278Z,17.58
2018-02-25T08:46:52.299Z,19.40
2018-02-25T08:49:20.542Z,19.12
2018-02-25T08:51:49.567Z,20.20
2018-02-25T08:54:17.819Z,21.02
2018-02-25T08:56:46.842Z,20.88
2018-02-25T08:59:15.093Z,14.20
2018-02-25T09:01:44.118Z,18.90
2018-02-25T09:04:12.366Z,19.95
2018-02-25T09:06:41.391Z,20.88
2018-02-25T09:09:09.750Z,12.75
2018-02-25T09:11:38.012Z,16.67
2018-02-25T09:14:07.025Z,14.77
2018-02-25T09:16:35.279Z,17.15
2018-02-25T09:19:04.293Z,13.88
2018-02-25T09:21:32.556Z,12.00
2018-02-25T09:24:01.569Z,13.38
2018-02-25T09:26:29.827Z,18.08
2018-02-25T09:28:58.086Z,15.90
2018-02-25T09:31:27.106Z,12.55
2018-02-25T09:33:55.352Z,14.87
2018-02-25T09:36:24.376Z,11.50
2018-02-25T09:38:52.628Z,13.68
2018-02-25T09:41:21.696Z,13.35
2018-02-25T09:43:49.889Z,12.18
2018-02-25T09:46:18.907Z,11.40
2018-02-25T09:48:47.162Z,14.85
2018-02-25T09:51:15.415Z,8.07
2018-02-25T09:53:43.710Z,17.00
2018-02-25T09:56:11.952Z,9.45
2018-02-25T09:58:40.193Z,8.32
2018-02-25T10:01:08.465Z,13.57
2018-02-25T10:03:36.722Z,14.43
2018-02-25T10:06:05.739Z,13.45
2018-02-25T10:08:34.023Z,13.57
2018-02-25T10:11:03.010Z,11.50
2018-02-25T10:13:31.262Z,11.30
2018-02-25T10:16:00.265Z,10.68
2018-02-25T10:18:28.529Z,11.60
2018-02-25T10:20:57.539Z,12.52
2018-02-25T10:23:25.785Z,12.95
2018-02-25T10:25:54.793Z,10.18
2018-02-25T10:28:23.809Z,10.40
2018-02-25T10:30:52.071Z,10.05
2018-02-25T10:33:20.322Z,13.93
2018-02-25T10:35:49.334Z,14.87
2018-02-25T10:38:17.594Z,10.27
2018-02-25T10:40:46.616Z,12.77
2018-02-25T10:43:14.862Z,10.52
2018-02-25T10:45:43.879Z,14.00
2018-02-25T10:48:12.127Z,8.63
2018-02-25T10:50:40.382Z,13.07
2018-02-25T10:53:08.625Z,11.73
2018-02-25T10:55:36.878Z,12.07
2018-02-25T10:58:05.126Z,10.07
2018-02-25T11:00:37.241Z,10.70
2018-02-25T11:03:05.484Z,10.65
2018-02-25T11:05:34.512Z,9.80
2018-02-25T11:08:02.750Z,10.80
2018-02-25T11:10:31.767Z,15.68
2018-02-25T11:13:00.018Z,8.35
2018-02-25T11:15:29.053Z,9.15
2018-02-25T11:17:57.290Z,13.30
2018-02-25T11:20:26.308Z,12.90
2018-02-25T11:22:54.567Z,12.10
2018-02-25T11:25:22.835Z,10.77
2018-02-25T11:27:51.864Z,10.33
2018-02-25T11:30:20.120Z,9.03
2018-02-25T11:32:48.377Z,12.57
2018-02-25T11:35:17.398Z,9.30
2018-02-25T11:37:45.642Z,9.93
2018-02-25T11:40:14.675Z,11.50
2018-02-25T11:42:42.918Z,8.63
2018-02-25T11:45:11.942Z,9.13
2018-02-25T11:47:40.230Z,8.93
2018-02-25T11:50:09.200Z,10.10
2018-02-25T11:52:37.462Z,9.37
2018-02-25T11:55:06.459Z,12.33
2018-02-25T11:57:34.702Z,10.53
2018-02-25T12:00:02.945Z,8.67
2018-02-25T12:02:31.177Z,7.60
2018-02-25T12:04:59.428Z,7.03
2018-02-25T12:07:27.666Z,9.50
2018-02-25T12:09:55.912Z,8.20
2018-02-25T12:12:24.150Z,6.63
2018-02-25T12:14:59.262Z,8.00
2018-02-25T12:17:20.634Z,9.37
2018-02-25T12:19:48.873Z,8.40
2018-02-25T12:22:17.145Z,7.27
2018-02-25T12:24:45.395Z,8.50
2018-02-25T12:27:13.633Z,9.07
2018-02-25T12:29:41.862Z,6.57
2018-02-25T12:32:10.111Z,9.43
2018-02-25T12:34:38.348Z,9.30
2018-02-25T12:37:07.350Z,8.60
2018-02-25T12:39:35.585Z,7.93
2018-02-25T12:42:05.337Z,8.93
2018-02-25T12:44:34.422Z,6.57
2018-02-25T12:47:02.699Z,6.83
2018-02-25T12:49:31.702Z,7.83
2018-02-25T12:51:59.942Z,9.27
2018-02-25T12:54:28.183Z,8.00
2018-02-25T12:56:56.434Z,8.50
2018-02-25T12:59:24.690Z,6.63
2018-02-25T13:01:53.754Z,6.20
2018-02-25T13:04:22.020Z,8.00
2018-02-25T13:06:50.258Z,8.33
2018-02-25T13:09:18.489Z,6.50
2018-02-25T13:11:46.748Z,8.13
2018-02-25T13:14:14.987Z,7.30
2018-02-25T13:16:43.237Z,8.23
2018-02-25T13:19:12.238Z,9.57
2018-02-25T13:21:40.489Z,9.77
2018-02-25T13:24:08.725Z,7.47
2018-02-25T13:26:36.967Z,7.50
2018-02-25T13:29:05.196Z,7.17
2018-02-25T13:31:33.462Z,8.43
2018-02-25T13:34:01.720Z,7.87
2018-02-25T13:36:29.968Z,9.90
2018-02-25T13:38:58.253Z,8.33
2018-02-25T13:41:26.574Z,6.63
2018-02-25T13:43:54.812Z,8.53
2018-02-25T13:46:23.060Z,8.53
2018-02-25T13:48:52.070Z,8.00
2018-02-25T13:51:20.354Z,8.60
2018-02-25T13:53:49.105Z,7.40
2018-02-25T13:56:18.390Z,9.70
2018-02-25T13:58:46.771Z,5.30
2018-02-25T14:01:15.281Z,7.10
2018-02-25T14:03:43.674Z,6.30
2018-02-25T14:06:12.113Z,7.00
2018-02-25T14:08:41.340Z,7.87
2018-02-25T14:11:09.857Z,7.40
2018-02-25T14:13:38.311Z,7.43
2018-02-25T14:16:06.753Z,8.67
2018-02-25T14:18:35.169Z,8.30
2018-02-25T14:21:03.632Z,8.27
2018-02-25T14:23:33.282Z,8.07
2018-02-25T14:26:02.582Z,7.60
2018-02-25T14:28:31.419Z,7.70
2018-02-25T14:31:00.730Z,7.80
2018-02-25T14:33:30.292Z,8.10
2018-02-25T14:35:58.773Z,6.90
2018-02-25T14:38:27.166Z,10.00
2018-02-25T14:40:55.435Z,7.40
2018-02-25T14:43:24.452Z,9.40
2018-02-25T14:45:53.459Z,7.97
2018-02-25T14:48:22.473Z,8.63
2018-02-25T14:50:50.744Z,50.63
2018-02-25T14:53:19.014Z,156.07
2018-02-25T14:55:48.008Z,10.90
2018-02-25T14:58:16.256Z,11.10
2018-02-25T15:00:44.503Z,8.90
2018-02-25T15:03:12.743Z,7.80
2018-02-25T15:05:40.990Z,8.13
2018-02-25T15:08:09.994Z,7.50
2018-02-25T15:10:38.243Z,7.33
2018-02-25T15:13:07.647Z,7.63
2018-02-25T15:15:36.654Z,8.40
2018-02-25T15:18:05.696Z,8.17
2018-02-25T15:20:33.933Z,7.07
2018-02-25T15:23:02.200Z,9.00
2018-02-25T15:25:31.212Z,7.27
2018-02-25T15:27:59.459Z,9.40
2018-02-25T15:30:28.464Z,6.90
2018-02-25T15:32:57.485Z,13.00
2018-02-25T15:35:25.739Z,7.17
2018-02-25T15:37:54.749Z,8.87
2018-02-25T15:40:23.004Z,7.73
2018-02-25T15:42:52.012Z,7.50
2018-02-25T15:45:20.261Z,9.20
2018-02-25T15:47:49.277Z,8.60
2018-02-25T15:50:17.560Z,8.87
2018-02-25T15:52:45.811Z,9.77
2018-02-25T15:55:14.970Z,11.23
2018-02-25T15:57:43.235Z,11.23
2018-02-25T16:00:11.749Z,7.47
2018-02-25T16:02:40.783Z,7.78
2018-02-25T16:05:09.187Z,7.00
2018-02-25T16:07:37.589Z,6.60
2018-02-25T16:10:05.926Z,13.00
2018-02-25T16:12:34.194Z,6.82
2018-02-25T16:15:02.768Z,7.05
2018-02-25T16:17:31.154Z,5.82
2018-02-25T16:19:59.318Z,9.30
2018-02-25T16:22:27.705Z,6.20
2018-02-25T16:24:56.144Z,6.68
2018-02-25T16:27:24.404Z,8.40
2018-02-25T16:29:52.889Z,6.65
2018-02-25T16:32:21.204Z,8.93
2018-02-25T16:34:49.650Z,6.50
2018-02-25T16:37:18.140Z,10.00
2018-02-25T16:39:47.378Z,7.10
2018-02-25T16:42:15.753Z,7.18
2018-02-25T16:44:44.156Z,8.73
2018-02-25T16:47:12.586Z,7.50
2018-02-25T16:49:41.843Z,7.00
2018-02-25T16:52:11.357Z,10.13
2018-02-25T16:54:39.904Z,11.30
2018-02-25T16:57:08.307Z,6.00
2018-02-25T16:59:36.750Z,7.18
2018-02-25T17:02:07.448Z,7.55
2018-02-25T17:04:40.538Z,7.47
2018-02-25T17:07:09.086Z,8.75
2018-02-25T17:09:37.622Z,9.10
2018-02-25T17:12:07.407Z,7.95
2018-02-25T17:14:36.671Z,8.85
2018-02-25T17:17:05.312Z,7.20
2018-02-25T17:19:34.580Z,7.70
2018-02-25T17:22:03.080Z,8.70
2018-02-25T17:24:32.321Z,6.22
2018-02-25T17:27:01.976Z,12.40
2018-02-25T17:29:30.846Z,8.30
2018-02-25T17:32:00.308Z,6.93
2018-02-25T17:34:30.773Z,8.65
2018-02-25T17:36:59.385Z,8.30
2018-02-25T17:39:27.971Z,7.85
2018-02-25T17:41:56.411Z,7.25
2018-02-25T17:44:24.959Z,9.93
2018-02-25T17:46:53.399Z,10.43
2018-02-25T17:49:21.696Z,8.98
2018-02-25T17:51:49.972Z,11.32
2018-02-25T17:54:18.252Z,9.80
2018-02-25T17:56:47.311Z,13.15
2018-02-25T17:59:15.607Z,8.38
2018-02-25T18:01:43.865Z,9.75
2018-02-25T18:04:12.157Z,8.25
2018-02-25T18:06:40.435Z,12.43
2018-02-25T18:09:08.715Z,10.45
2018-02-25T18:11:36.985Z,8.43
2018-02-25T18:14:05.278Z,6.37
2018-02-25T18:16:34.309Z,5.37
2018-02-25T18:19:02.577Z,6.00
2018-02-25T18:21:30.837Z,10.93
2018-02-25T18:26:56.790Z,11.02
2018-02-25T18:29:25.068Z,9.50
2018-02-25T18:49:40.058Z,10.93
2018-02-25T18:52:08.355Z,9.27
2018-02-25T18:54:36.642Z,6.43
2018-02-25T18:57:04.938Z,7.78
2018-02-25T18:59:33.995Z,6.93
2018-02-25T19:02:02.274Z,6.55
2018-02-25T19:04:30.566Z,9.13
2018-02-25T19:06:58.843Z,7.30
2018-02-25T19:09:27.137Z,4.97
2018-02-25T19:11:56.190Z,6.47
2018-02-25T19:14:24.478Z,8.15
2018-02-25T19:16:52.762Z,9.98
2018-02-25T19:19:21.033Z,6.97
2018-02-25T19:21:49.319Z,9.10
2018-02-25T19:24:17.672Z,8.85
2018-02-25T19:26:45.937Z,7.70
2018-02-25T19:29:14.186Z,6.97
2018-02-25T19:31:42.484Z,7.53
2018-02-25T19:34:10.758Z,10.02
2018-02-25T19:36:44.563Z,7.60
2018-02-25T19:39:18.362Z,10.60
2018-02-25T19:41:52.247Z,10.32
2018-02-25T19:44:20.504Z,6.70
2018-02-25T19:46:49.525Z,9.85
2018-02-25T19:49:17.776Z,6.72
2018-02-25T19:51:46.815Z,10.60
2018-02-25T19:54:15.083Z,9.30
2018-02-25T19:56:43.347Z,6.37
2018-02-25T19:59:11.609Z,10.98
2018-02-25T20:01:40.653Z,13.35
2018-02-25T20:04:08.946Z,7.43
2018-02-25T20:06:37.253Z,6.75
2018-02-25T20:09:06.296Z,9.70
2018-02-25T20:11:34.569Z,10.48
2018-02-25T20:14:02.833Z,9.80
2018-02-25T20:16:31.094Z,10.60
2018-02-25T20:18:59.350Z,8.93
2018-02-25T20:21:28.385Z,7.75
2018-02-25T20:23:56.642Z,5.78
2018-02-25T20:26:24.901Z,9.38
2018-02-25T20:28:53.158Z,7.37
2018-02-25T20:31:22.230Z,9.13
2018-02-25T20:33:50.492Z,8.57
2018-02-25T20:36:18.781Z,10.05
2018-02-25T20:38:47.044Z,8.82
2018-02-25T20:41:15.299Z,11.25
2018-02-25T20:43:43.555Z,13.68
2018-02-25T20:46:11.826Z,11.75
2018-02-25T20:48:40.081Z,14.10
2018-02-25T20:51:09.118Z,8.43
2018-02-25T20:53:37.368Z,8.52
2018-02-25T20:56:05.669Z,8.90
2018-02-25T20:58:33.928Z,12.07
2018-02-25T21:01:02.455Z,5.68
2018-02-25T21:03:30.921Z,10.63
2018-02-25T21:05:59.448Z,7.28
2018-02-25T21:08:28.940Z,7.87
2018-02-25T21:10:57.631Z,15.55
2018-02-25T21:13:26.091Z,9.48
2018-02-25T21:15:54.570Z,5.25
2018-02-25T21:18:23.062Z,7.95
2018-02-25T21:20:51.684Z,12.52
2018-02-25T21:23:20.186Z,8.65
2018-02-25T21:25:48.651Z,7.53
2018-02-25T21:28:17.127Z,10.60
2018-02-25T21:30:45.576Z,7.03
2018-02-25T21:33:14.740Z,8.10
2018-02-25T21:35:43.479Z,7.65
2018-02-25T21:38:11.953Z,7.07
2018-02-25T21:40:41.196Z,10.48
2018-02-25T21:43:10.076Z,9.40
2018-02-25T21:45:38.512Z,8.30
2018-02-25T21:48:07.705Z,9.48
2018-02-25T21:50:36.161Z,10.27
2018-02-25T21:53:04.744Z,7.87
2018-02-25T21:55:33.272Z,9.20
2018-02-25T21:58:07.519Z,9.82
2018-02-25T22:00:41.444Z,6.80
2018-02-25T22:03:30.593Z,7.43
2018-02-25T22:05:59.095Z,8.55
2018-02-25T22:08:27.533Z,8.13
2018-02-25T22:10:55.956Z,7.12
2018-02-25T22:13:24.390Z,6.78
2018-02-25T22:15:52.822Z,9.32
2018-02-25T22:18:21.245Z,8.80
2018-02-25T22:20:49.696Z,11.68
2018-02-25T22:23:18.777Z,11.63
2018-02-25T22:25:47.094Z,12.10
2018-02-25T22:28:15.380Z,11.25
2018-02-25T22:30:43.655Z,11.32
2018-02-25T22:33:11.978Z,9.27
2018-02-25T22:35:40.254Z,10.60
2018-02-25T22:38:08.552Z,10.18
2018-02-25T22:40:37.613Z,8.95
2018-02-25T22:43:05.906Z,7.60
2018-02-25T22:45:34.184Z,11.43
2018-02-25T22:48:02.464Z,7.70
2018-02-25T22:50:30.764Z,8.63
2018-02-25T22:52:59.828Z,10.10
2018-02-25T22:55:28.120Z,8.50
2018-02-25T22:57:56.428Z,13.18
2018-02-25T23:00:24.748Z,15.10
2018-02-25T23:02:53.040Z,11.23
2018-02-25T23:05:21.320Z,9.40
2018-02-25T23:07:49.637Z,10.60
2018-02-25T23:10:17.966Z,12.85
2018-02-25T23:12:46.255Z,8.15
2018-02-25T23:15:14.566Z,9.88
2018-02-25T23:17:42.867Z,9.68
2018-02-25T23:20:11.182Z,9.38
2018-02-25T23:22:39.508Z,14.75
2018-02-25T23:25:07.802Z,9.73
2018-02-25T23:27:36.080Z,11.60
2018-02-25T23:30:04.398Z,8.93
2018-02-25T23:32:33.452Z,9.70
2018-02-25T23:35:01.763Z,12.30
2018-02-25T23:37:30.052Z,11.45
2018-02-25T23:39:59.102Z,13.20
2018-02-25T23:42:27.383Z,9.63
2018-02-25T23:44:55.689Z,11.18
2018-02-25T23:47:24.729Z,10.77
2018-02-25T23:49:53.009Z,10.93
2018-02-25T23:52:21.301Z,10.13
2018-02-25T23:54:49.582Z,12.02
2018-02-25T23:57:17.918Z,11.60
2018-02-25T23:59:46.220Z,12.60
